Time;durP1;ratioP1;P1;durP2;ratioP2;P2;SDS_P1;SDS_P2;PMS_P1;PMS_P2;Temp;Humidity;BMP_temperature;BMP_pressure;BME280_temperature;BME280_humidity;BME280_pressure;Samples;Min_cycle;Max_cycle;Signal;HPM_P1;HPM_P2
2022/02/09 00:06:11;;;;;;;6.32;3.80;;;;;;;;;;6295914;28;20064;-88
2022/02/09 00:08:37;;;;;;;7.60;4.53;;;;;;;;;;6298510;28;20104;-88
2022/02/09 00:11:46;;;;;;;7.63;4.03;;;;;;;;;;6273236;28;20038;-86
2022/02/09 00:18:20;;;;;;;8.93;4.93;;;;;;;;;;6286859;28;20112;-87
2022/02/09 00:21:48;;;;;;;9.13;4.43;;;;;;;;;;6284028;28;20059;-87
2022/02/09 00:25:23;;;;;;;6.93;4.00;;;;;;;;;;6260408;28;20549;-84
2022/02/09 00:29:25;;;;;;;7.75;3.85;;;;;;;;;;6249772;28;20096;-83
2022/02/09 01:11:36;;;;;;;7.45;4.65;;;;;;;;;;6257543;28;20429;-83
2022/02/09 01:42:06;;;;;;;5.85;4.20;;;;;;;;;;6252049;28;20044;-86
2022/02/09 01:51:21;;;;;;;8.27;4.72;;;;;;;;;;6267781;28;20049;-85
2022/02/09 01:57:47;;;;;;;8.23;4.30;;;;;;;;;;6252582;28;20095;-86
2022/02/09 02:00:49;;;;;;;6.40;4.00;;;;;;;;;;6278158;28;20124;-83
2022/02/09 02:03:51;;;;;;;6.93;3.78;;;;;;;;;;6254388;28;20061;-82
2022/02/09 02:06:54;;;;;;;5.97;3.80;;;;;;;;;;6271129;28;20051;-84
2022/02/09 02:10:03;;;;;;;7.60;4.05;;;;;;;;;;6270974;28;20123;-85
2022/02/09 02:25:57;;;;;;;5.40;2.97;;;;;;;;;;6274507;28;20546;-85
2022/02/09 02:36:00;;;;;;;6.65;3.90;;;;;;;;;;6274743;28;20076;-87
2022/02/09 03:11:31;;;;;;;7.03;4.00;;;;;;;;;;6257968;28;20059;-84
2022/02/09 03:14:42;;;;;;;6.60;3.70;;;;;;;;;;6256385;28;20498;-83
2022/02/09 03:17:52;;;;;;;7.32;3.97;;;;;;;;;;6273940;28;20041;-86
2022/02/09 03:24:10;;;;;;;7.18;4.18;;;;;;;;;;6259210;28;20105;-86
2022/02/09 03:44:09;;;;;;;8.75;4.38;;;;;;;;;;6255102;28;20045;-83
2022/02/09 03:59:52;;;;;;;6.85;4.45;;;;;;;;;;6250654;28;20120;-86
2022/02/09 04:02:57;;;;;;;7.53;4.28;;;;;;;;;;6288644;28;20040;-85
2022/02/09 04:05:59;;;;;;;6.90;4.15;;;;;;;;;;6299827;28;20461;-84
2022/02/09 04:09:03;;;;;;;8.13;4.30;;;;;;;;;;6299263;28;20625;-85
2022/02/09 04:12:28;;;;;;;6.43;4.32;;;;;;;;;;6255277;28;20541;-84
2022/02/09 04:16:31;;;;;;;8.18;4.40;;;;;;;;;;6270834;28;20517;-84
2022/02/09 04:19:03;;;;;;;8.63;4.60;;;;;;;;;;6264642;28;20052;-86
2022/02/09 04:39:26;;;;;;;9.27;4.82;;;;;;;;;;6263009;28;20052;-84
2022/02/09 04:58:36;;;;;;;9.18;5.40;;;;;;;;;;6262902;28;20068;-86
2022/02/09 05:18:24;;;;;;;9.68;4.70;;;;;;;;;;6247692;28;20516;-84
2022/02/09 05:25:49;;;;;;;8.80;4.88;;;;;;;;;;6247765;28;20513;-85
2022/02/09 05:28:18;;;;;;;8.82;4.60;;;;;;;;;;6241864;28;20778;-86
2022/02/09 05:31:20;;;;;;;8.65;4.88;;;;;;;;;;6245909;28;20065;-82
2022/02/09 05:34:22;;;;;;;7.45;4.38;;;;;;;;;;6245165;28;20122;-84
2022/02/09 05:37:24;;;;;;;8.88;5.25;;;;;;;;;;6265224;28;20045;-85
2022/02/09 05:40:25;;;;;;;8.80;5.25;;;;;;;;;;6250866;28;20045;-84
2022/02/09 05:43:28;;;;;;;9.52;5.15;;;;;;;;;;6257211;28;20161;-83
2022/02/09 05:49:45;;;;;;;10.02;5.40;;;;;;;;;;6298595;28;20033;-85
2022/02/09 05:59:03;;;;;;;10.02;5.20;;;;;;;;;;6249179;28;20049;-85
2022/02/09 06:02:05;;;;;;;11.38;4.93;;;;;;;;;;6249243;28;20045;-84
2022/02/09 06:05:07;;;;;;;10.13;5.22;;;;;;;;;;6252671;28;20047;-85
2022/02/09 06:08:08;;;;;;;9.88;4.93;;;;;;;;;;6250515;28;20056;-85
2022/02/09 06:11:22;;;;;;;8.68;4.68;;;;;;;;;;6248865;28;20406;-84
2022/02/09 06:21:04;;;;;;;9.50;5.47;;;;;;;;;;6247607;28;20041;-84
2022/02/09 06:24:06;;;;;;;8.73;5.18;;;;;;;;;;6249867;28;20092;-84
2022/02/09 06:27:10;;;;;;;7.57;3.80;;;;;;;;;;6249415;28;20421;-85
2022/02/09 06:30:11;;;;;;;11.15;4.95;;;;;;;;;;6247853;28;20112;-86
2022/02/09 06:33:14;;;;;;;10.10;5.38;;;;;;;;;;6263522;28;20048;-82
2022/02/09 06:36:21;;;;;;;10.43;5.97;;;;;;;;;;6268995;28;20044;-83
2022/02/09 06:39:22;;;;;;;10.52;5.03;;;;;;;;;;6298133;28;20120;-86
2022/02/09 06:42:25;;;;;;;7.82;5.07;;;;;;;;;;6269964;28;20093;-87
2022/02/09 06:45:32;;;;;;;9.13;4.93;;;;;;;;;;6250685;28;20553;-84
2022/02/09 06:48:34;;;;;;;8.43;4.60;;;;;;;;;;6299188;28;20052;-84
2022/02/09 06:51:38;;;;;;;10.32;4.78;;;;;;;;;;6297159;28;20048;-82
2022/02/09 06:54:54;;;;;;;10.82;4.68;;;;;;;;;;6293694;28;20068;-82
2022/02/09 06:58:04;;;;;;;8.65;5.22;;;;;;;;;;6246660;28;20042;-83
2022/02/09 07:01:07;;;;;;;8.05;4.50;;;;;;;;;;6227917;28;20052;-83
2022/02/09 07:04:09;;;;;;;8.40;4.90;;;;;;;;;;6250016;28;20041;-81
2022/02/09 07:07:10;;;;;;;8.85;4.85;;;;;;;;;;6263039;28;20052;-81
2022/02/09 07:10:13;;;;;;;8.35;4.20;;;;;;;;;;6248056;28;20068;-81
2022/02/09 07:13:15;;;;;;;7.90;5.05;;;;;;;;;;6272866;28;20056;-81
2022/02/09 07:16:18;;;;;;;8.23;4.60;;;;;;;;;;6263932;28;20046;-78
2022/02/09 07:19:20;;;;;;;8.55;4.30;;;;;;;;;;6243469;28;20045;-81
2022/02/09 07:22:26;;;;;;;9.50;4.57;;;;;;;;;;6241028;28;20041;-80
2022/02/09 07:25:32;;;;;;;7.57;4.10;;;;;;;;;;6245720;28;20045;-79
2022/02/09 07:28:35;;;;;;;8.05;4.88;;;;;;;;;;6274289;28;20043;-83
2022/02/09 07:31:37;;;;;;;8.60;4.63;;;;;;;;;;6261652;28;20108;-82
2022/02/09 07:34:38;;;;;;;8.77;4.55;;;;;;;;;;6248379;28;20445;-83
2022/02/09 07:37:40;;;;;;;7.68;4.30;;;;;;;;;;6294390;28;20064;-83
2022/02/09 07:40:43;;;;;;;10.70;4.50;;;;;;;;;;6261383;28;20033;-83
2022/02/09 07:43:58;;;;;;;9.88;4.90;;;;;;;;;;6248476;28;20061;-82
2022/02/09 07:47:21;;;;;;;7.13;4.25;;;;;;;;;;6289404;28;20040;-81
2022/02/09 07:53:34;;;;;;;12.02;4.32;;;;;;;;;;6302711;28;20044;-83
2022/02/09 07:56:39;;;;;;;7.53;4.50;;;;;;;;;;6276760;28;20517;-81
2022/02/09 07:59:40;;;;;;;9.25;5.07;;;;;;;;;;6252757;28;20073;-82
2022/02/09 08:02:42;;;;;;;9.10;4.57;;;;;;;;;;6250626;28;20039;-82
2022/02/09 08:05:43;;;;;;;8.40;4.40;;;;;;;;;;6250883;28;20061;-82
2022/02/09 08:08:46;;;;;;;7.47;4.10;;;;;;;;;;6248062;28;20052;-81
2022/02/09 08:11:55;;;;;;;9.57;5.00;;;;;;;;;;6265373;28;20055;-81
2022/02/09 08:28:34;;;;;;;9.93;5.35;;;;;;;;;;6256728;28;20056;-81
2022/02/09 08:32:36;;;;;;;12.02;4.90;;;;;;;;;;6262645;28;20100;-82
2022/02/09 08:35:00;;;;;;;10.40;5.22;;;;;;;;;;6262929;28;20060;-81
2022/02/09 08:38:02;;;;;;;9.18;5.00;;;;;;;;;;6262943;28;20124;-81
2022/02/09 08:41:04;;;;;;;9.32;5.50;;;;;;;;;;6264765;28;20043;-81
2022/02/09 08:44:07;;;;;;;8.18;4.63;;;;;;;;;;6264568;28;20048;-83
2022/02/09 08:47:08;;;;;;;9.10;5.03;;;;;;;;;;6261455;28;20063;-81
2022/02/09 08:50:10;;;;;;;8.15;4.72;;;;;;;;;;6259017;28;20472;-80
2022/02/09 08:53:12;;;;;;;9.60;5.30;;;;;;;;;;6264526;28;20120;-81
2022/02/09 08:56:13;;;;;;;9.25;4.72;;;;;;;;;;6261265;28;20041;-80
2022/02/09 08:59:22;;;;;;;9.63;4.85;;;;;;;;;;6260930;28;20340;-81
2022/02/09 09:02:32;;;;;;;9.15;5.15;;;;;;;;;;6261312;28;20049;-81
2022/02/09 09:05:50;;;;;;;8.30;4.35;;;;;;;;;;6272104;28;20043;-83
2022/02/09 09:59:11;;;;;;;12.43;5.65;;;;;;;;;;6274860;28;20133;-83
2022/02/09 10:02:17;;;;;;;9.88;5.72;;;;;;;;;;6254295;28;20096;-82
2022/02/09 10:32:58;;;;;;;9.63;5.28;;;;;;;;;;6267796;28;20128;-83
2022/02/09 10:36:16;;;;;;;10.50;5.10;;;;;;;;;;6275553;28;20045;-83
2022/02/09 10:39:30;;;;;;;8.65;4.50;;;;;;;;;;6276450;28;20122;-81
2022/02/09 10:42:44;;;;;;;10.43;4.60;;;;;;;;;;6273967;28;20417;-82
2022/02/09 10:45:48;;;;;;;11.38;4.97;;;;;;;;;;6273258;28;20139;-83
2022/02/09 10:48:55;;;;;;;8.32;4.88;;;;;;;;;;6272688;28;20052;-82
2022/02/09 10:55:02;;;;;;;8.23;4.70;;;;;;;;;;6272704;28;20069;-83
2022/02/09 10:58:20;;;;;;;11.85;4.82;;;;;;;;;;6273277;28;20049;-82
2022/02/09 11:01:21;;;;;;;9.88;4.68;;;;;;;;;;6265211;28;20108;-83
2022/02/09 11:04:23;;;;;;;9.63;4.70;;;;;;;;;;6247656;28;20048;-82
2022/02/09 11:07:25;;;;;;;8.60;4.28;;;;;;;;;;6265905;28;20088;-82
2022/02/09 11:10:26;;;;;;;9.90;4.20;;;;;;;;;;6249849;28;20041;-81
2022/02/09 11:13:28;;;;;;;6.70;4.03;;;;;;;;;;6251930;28;20524;-80
2022/02/09 11:16:31;;;;;;;7.55;4.50;;;;;;;;;;6266967;28;20033;-80
2022/02/09 11:19:38;;;;;;;8.68;4.50;;;;;;;;;;6274358;28;20040;-81
2022/02/09 11:22:45;;;;;;;9.75;4.38;;;;;;;;;;6274183;28;20172;-80
2022/02/09 11:25:54;;;;;;;10.05;4.05;;;;;;;;;;6267409;28;20049;-81
2022/02/09 11:35:43;;;;;;;7.95;4.25;;;;;;;;;;6252542;28;20041;-80
2022/02/09 11:38:50;;;;;;;6.25;3.85;;;;;;;;;;6273730;28;20133;-80
2022/02/09 11:42:38;;;;;;;6.25;3.22;;;;;;;;;;6278093;28;20309;-81
2022/02/09 11:46:22;;;;;;;7.47;3.20;;;;;;;;;;6276828;28;20052;-82
2022/02/09 11:49:32;;;;;;;6.07;3.03;;;;;;;;;;6301250;28;20074;-81
2022/02/09 11:54:44;;;;;;;4.57;3.03;;;;;;;;;;6294802;28;20161;-81
2022/02/09 12:09:17;;;;;;;14.23;3.20;;;;;;;;;;6246962;28;20508;-82
2022/02/09 12:12:22;;;;;;;7.00;3.20;;;;;;;;;;6244193;28;20057;-83
2022/02/09 12:16:02;;;;;;;5.57;3.05;;;;;;;;;;6246083;28;20510;-82
2022/02/09 12:19:09;;;;;;;5.35;2.85;;;;;;;;;;6246616;28;20120;-81
2022/02/09 12:22:19;;;;;;;5.25;2.72;;;;;;;;;;6244941;28;20049;-83
2022/02/09 12:25:20;;;;;;;6.57;3.17;;;;;;;;;;6254924;28;20040;-81
2022/02/09 12:28:26;;;;;;;6.78;3.15;;;;;;;;;;6261747;28;20496;-83
2022/02/09 12:31:31;;;;;;;5.35;2.80;;;;;;;;;;6262969;28;20083;-82
2022/02/09 12:34:34;;;;;;;5.28;3.53;;;;;;;;;;6267164;28;20051;-81
2022/02/09 12:37:44;;;;;;;5.63;2.80;;;;;;;;;;6275818;28;20065;-81
2022/02/09 12:40:45;;;;;;;4.50;3.03;;;;;;;;;;6280746;28;20127;-82
2022/02/09 12:43:54;;;;;;;6.10;2.97;;;;;;;;;;6252380;28;20071;-81
2022/02/09 12:46:56;;;;;;;5.53;2.45;;;;;;;;;;6284506;28;20060;-79
2022/02/09 12:50:00;;;;;;;4.50;2.63;;;;;;;;;;6298897;28;20070;-81
2022/02/09 12:53:03;;;;;;;4.95;2.63;;;;;;;;;;6299549;28;20108;-80
2022/02/09 12:56:16;;;;;;;;;;;;;;;;;;6283360;28;20130;-81
2022/02/09 12:59:21;;;;;;;5.00;2.42;;;;;;;;;;6281284;28;19975;-79
2022/02/09 13:02:23;;;;;;;;;;;;;;;;;;6270111;28;20112;-80
2022/02/09 13:05:26;;;;;;;6.22;2.25;;;;;;;;;;6265744;28;19984;-83
2022/02/09 13:08:30;;;;;;;5.45;2.55;;;;;;;;;;6301092;28;20263;-82
2022/02/09 13:11:34;;;;;;;4.68;2.83;;;;;;;;;;6265503;28;20041;-82
2022/02/09 13:14:41;;;;;;;4.07;2.45;;;;;;;;;;6259886;28;20089;-83
2022/02/09 13:17:54;;;;;;;5.35;2.45;;;;;;;;;;6258171;28;20041;-84
2022/02/09 14:56:59;;;;;;;2.65;1.42;;;;;;;;;;6270407;28;20128;-82
2022/02/09 15:00:08;;;;;;;4.80;1.90;;;;;;;;;;6272613;28;20060;-84
2022/02/09 15:09:48;;;;;;;2.50;1.30;;;;;;;;;;6247618;28;20072;-81
2022/02/09 15:13:06;;;;;;;2.92;1.60;;;;;;;;;;6260765;28;20120;-83
2022/02/09 15:22:16;;;;;;;2.65;1.20;;;;;;;;;;6270858;28;20072;-83
2022/02/09 15:25:21;;;;;;;1.33;1.20;;;;;;;;;;6273009;28;20047;-83
2022/02/09 15:28:23;;;;;;;5.78;1.90;;;;;;;;;;6247374;28;20045;-85
2022/02/09 15:34:30;;;;;;;3.20;1.75;;;;;;;;;;6246411;28;20432;-84
2022/02/09 15:37:59;;;;;;;4.05;1.95;;;;;;;;;;6268176;28;20041;-83
2022/02/09 15:41:14;;;;;;;2.72;1.70;;;;;;;;;;6270391;28;20043;-82
2022/02/09 16:11:45;;;;;;;3.58;1.60;;;;;;;;;;6268220;28;20151;-84
2022/02/09 16:38:23;;;;;;;2.70;1.50;;;;;;;;;;6274243;28;20049;-84
2022/02/09 16:44:45;;;;;;;3.35;1.30;;;;;;;;;;6265385;28;20128;-85
2022/02/09 16:50:50;;;;;;;7.68;3.42;;;;;;;;;;6264685;28;20052;-82
2022/02/09 17:20:12;;;;;;;60.90;29.10;;;;;;;;;;6266852;28;20056;-85
2022/02/09 17:23:14;;;;;;;49.53;20.10;;;;;;;;;;6265776;28;20045;-84
2022/02/09 17:26:16;;;;;;;98.07;35.17;;;;;;;;;;6255211;28;20049;-84
2022/02/09 17:29:21;;;;;;;29.08;12.93;;;;;;;;;;6245992;28;20050;-86
2022/02/09 17:35:37;;;;;;;25.05;11.68;;;;;;;;;;6284621;28;20051;-83
2022/02/09 17:58:44;;;;;;;16.15;7.35;;;;;;;;;;6227882;28;20136;-87
2022/02/09 18:01:46;;;;;;;15.38;9.20;;;;;;;;;;6261507;28;20503;-86
2022/02/09 18:04:48;;;;;;;20.50;11.95;;;;;;;;;;6247078;28;20162;-83
2022/02/09 18:07:56;;;;;;;16.80;9.05;;;;;;;;;;6255516;28;20048;-85
2022/02/09 18:11:25;;;;;;;14.95;8.02;;;;;;;;;;6268756;28;20040;-83
2022/02/09 18:30:55;;;;;;;;;;;;;;;;;;6271069;28;20047;-83
2022/02/09 18:37:55;;;;;;;13.68;7.90;;;;;;;;;;6232160;28;20037;-84
2022/02/09 18:44:19;;;;;;;32.92;16.73;;;;;;;;;;6269112;28;20067;-84
2022/02/09 19:07:51;;;;;;;35.40;14.35;;;;;;;;;;6260904;28;20096;-83
2022/02/09 19:18:08;;;;;;;52.03;20.98;;;;;;;;;;6238931;28;20413;-81
2022/02/09 19:20:55;;;;;;;41.38;18.13;;;;;;;;;;6245119;28;20038;-84
2022/02/09 19:28:03;;;;;;;28.13;14.30;;;;;;;;;;6267313;28;20049;-85
2022/02/09 19:47:45;;;;;;;25.77;13.85;;;;;;;;;;6268489;28;20037;-85
2022/02/09 19:51:04;;;;;;;;;;;;;;;;;;6263636;28;20440;-85
2022/02/09 19:54:13;;;;;;;14.15;8.73;;;;;;;;;;6256452;28;20065;-84
2022/02/09 19:57:16;;;;;;;17.27;9.57;;;;;;;;;;6241388;28;20180;-85
2022/02/09 20:00:21;;;;;;;17.83;9.68;;;;;;;;;;6255442;28;20418;-85
2022/02/09 20:03:22;;;;;;;10.50;7.05;;;;;;;;;;6240354;28;20042;-88
2022/02/09 20:06:24;;;;;;;9.25;5.10;;;;;;;;;;6239891;28;20426;-85
2022/02/09 20:09:26;;;;;;;18.25;10.13;;;;;;;;;;6243721;28;20449;-86
2022/02/09 20:12:28;;;;;;;44.70;17.98;;;;;;;;;;6264792;28;20040;-84
2022/02/09 20:15:30;;;;;;;19.70;9.32;;;;;;;;;;6263728;28;20102;-85
2022/02/09 20:18:32;;;;;;;30.48;14.05;;;;;;;;;;6266445;28;20090;-86
2022/02/09 20:21:34;;;;;;;30.48;14.35;;;;;;;;;;6266454;28;20135;-85
2022/02/09 20:24:36;;;;;;;32.72;15.77;;;;;;;;;;6266516;28;20103;-86
2022/02/09 20:27:38;;;;;;;25.45;13.05;;;;;;;;;;6228304;28;20054;-85
2022/02/09 20:30:45;;;;;;;12.13;6.88;;;;;;;;;;6242928;28;20142;-84
2022/02/09 20:33:53;;;;;;;11.18;7.28;;;;;;;;;;6241789;28;20045;-83
2022/02/09 20:36:55;;;;;;;31.83;15.10;;;;;;;;;;6256331;28;20103;-88
2022/02/09 20:43:00;;;;;;;13.20;6.18;;;;;;;;;;6247796;28;20083;-86
2022/02/09 20:46:05;;;;;;;17.33;9.13;;;;;;;;;;6246235;28;20072;-83
2022/02/09 20:49:07;;;;;;;15.65;8.75;;;;;;;;;;6268476;28;20048;-85
2022/02/09 20:52:11;;;;;;;13.85;7.05;;;;;;;;;;6265094;28;20839;-86
2022/02/09 20:55:13;;;;;;;11.30;6.88;;;;;;;;;;6250969;28;20058;-86
2022/02/09 20:58:16;;;;;;;14.45;6.88;;;;;;;;;;6240471;28;20052;-86
2022/02/09 21:01:22;;;;;;;11.93;7.05;;;;;;;;;;6256449;28;20199;-85
2022/02/09 21:04:27;;;;;;;14.65;7.57;;;;;;;;;;6258547;28;20163;-85
2022/02/09 21:07:39;;;;;;;21.58;9.43;;;;;;;;;;6240367;28;20052;-84
2022/02/09 21:10:49;;;;;;;12.70;7.13;;;;;;;;;;6238674;28;20045;-85
2022/02/09 21:21:18;;;;;;;17.45;10.30;;;;;;;;;;6271126;28;20697;-83
2022/02/09 21:53:52;;;;;;;12.82;7.25;;;;;;;;;;6284043;28;20041;-86
2022/02/09 21:56:59;;;;;;;12.05;6.85;;;;;;;;;;6233744;28;20127;-84
2022/02/09 22:07:31;;;;;;;11.43;6.28;;;;;;;;;;6238418;28;20084;-85
2022/02/09 22:20:19;;;;;;;15.27;6.88;;;;;;;;;;6238900;28;20056;-85
2022/02/09 22:56:10;;;;;;;17.30;6.65;;;;;;;;;;6253083;28;20138;-87
2022/02/09 22:59:26;;;;;;;34.33;9.07;;;;;;;;;;6266449;28;20365;-84
2022/02/09 23:02:34;;;;;;;44.72;10.55;;;;;;;;;;6248865;28;20195;-85
2022/02/09 23:52:43;;;;;;;64.18;9.10;;;;;;;;;;6256218;28;20184;-84
2022/02/09 23:55:33;;;;;;;23.77;8.00;;;;;;;;;;6256756;28;20052;-85
2022/02/09 23:58:40;;;;;;;24.90;6.40;;;;;;;;;;6242036;28;20061;-85
